Time;durP1;ratioP1;P1;durP2;ratioP2;P2;SDS_P1;SDS_P2;PMS_P1;PMS_P2;Temp;Humidity;BMP_temperature;BMP_pressure;BME280_temperature;BME280_humidity;BME280_pressure;Samples;Min_cycle;Max_cycle;Signal;HPM_P1;HPM_P2
2021/01/25 00:00:48;;;;;;;10.20;7.05;;;;;;;;;;5075279;28;21448;-82
2021/01/25 00:03:14;;;;;;;9.60;7.53;;;;;;;;;;5074625;28;20198;-81
2021/01/25 00:05:42;;;;;;;11.27;6.90;;;;;;;;;;5073101;28;20473;-81
2021/01/25 00:08:08;;;;;;;14.60;7.20;;;;;;;;;;5074679;28;20448;-82
2021/01/25 00:10:35;;;;;;;15.33;7.40;;;;;;;;;;5075318;28;20309;-82
2021/01/25 00:13:01;;;;;;;14.73;7.77;;;;;;;;;;5079531;28;20461;-82
2021/01/25 00:15:28;;;;;;;11.20;8.23;;;;;;;;;;5077159;28;20453;-82
2021/01/25 00:17:54;;;;;;;12.23;7.73;;;;;;;;;;5078470;28;20456;-81
2021/01/25 00:20:21;;;;;;;9.93;7.17;;;;;;;;;;5071027;28;20492;-81
2021/01/25 00:22:48;;;;;;;11.02;7.97;;;;;;;;;;5074524;28;20461;-81
2021/01/25 00:25:15;;;;;;;11.27;7.53;;;;;;;;;;5079237;28;20641;-82
2021/01/25 00:27:42;;;;;;;10.97;7.30;;;;;;;;;;5074399;28;20476;-82
2021/01/25 00:30:09;;;;;;;11.43;7.83;;;;;;;;;;5078129;28;20472;-81
2021/01/25 00:32:35;;;;;;;7.67;6.87;;;;;;;;;;5073132;28;20452;-81
2021/01/25 00:35:02;;;;;;;11.30;7.40;;;;;;;;;;5074189;28;20457;-81
2021/01/25 00:37:30;;;;;;;12.33;7.13;;;;;;;;;;5070557;28;20445;-82
2021/01/25 00:39:57;;;;;;;14.43;7.57;;;;;;;;;;5073420;28;20481;-81
2021/01/25 00:42:24;;;;;;;14.13;7.97;;;;;;;;;;5074173;28;20704;-81
2021/01/25 00:44:50;;;;;;;9.77;7.43;;;;;;;;;;5069215;28;20862;-81
2021/01/25 00:47:17;;;;;;;8.93;7.20;;;;;;;;;;5073711;28;20493;-81
2021/01/25 00:49:43;;;;;;;10.73;7.43;;;;;;;;;;5072954;28;20508;-81
2021/01/25 00:52:10;;;;;;;10.10;7.47;;;;;;;;;;5069923;28;20453;-81
2021/01/25 00:54:36;;;;;;;12.05;8.88;;;;;;;;;;5074224;28;20457;-81
2021/01/25 00:57:04;;;;;;;10.30;7.63;;;;;;;;;;5072792;28;20199;-81
2021/01/25 00:59:31;;;;;;;15.23;8.47;;;;;;;;;;5070757;28;20835;-82
2021/01/25 01:01:57;;;;;;;9.97;7.30;;;;;;;;;;5068030;28;20456;-81
2021/01/25 01:04:24;;;;;;;11.87;7.30;;;;;;;;;;5070548;28;20460;-82
2021/01/25 01:06:51;;;;;;;10.70;7.80;;;;;;;;;;5073313;28;20511;-82
2021/01/25 01:09:18;;;;;;;15.93;8.47;;;;;;;;;;5069580;28;20461;-82
2021/01/25 01:11:45;;;;;;;16.63;7.47;;;;;;;;;;5068685;28;20491;-82
2021/01/25 01:14:12;;;;;;;10.37;8.20;;;;;;;;;;5066130;28;20469;-82
2021/01/25 01:16:39;;;;;;;15.00;8.53;;;;;;;;;;5069643;28;20469;-82
2021/01/25 01:19:05;;;;;;;13.17;9.10;;;;;;;;;;5068957;28;20453;-81
2021/01/25 01:21:32;;;;;;;11.57;8.20;;;;;;;;;;5074586;28;20457;-82
2021/01/25 01:23:59;;;;;;;10.10;8.27;;;;;;;;;;5065190;28;20452;-81
2021/01/25 01:26:25;;;;;;;16.83;9.13;;;;;;;;;;5068440;28;20478;-82
2021/01/25 01:28:52;;;;;;;14.60;8.80;;;;;;;;;;5068904;28;20476;-82
2021/01/25 01:31:19;;;;;;;13.53;8.53;;;;;;;;;;5073302;28;20499;-82
2021/01/25 01:33:46;;;;;;;13.50;8.20;;;;;;;;;;5072686;28;20456;-82
2021/01/25 01:36:12;;;;;;;26.60;8.00;;;;;;;;;;5072106;28;20442;-82
2021/01/25 01:38:39;;;;;;;11.93;8.40;;;;;;;;;;5073874;28;20827;-82
2021/01/25 01:41:05;;;;;;;12.00;8.43;;;;;;;;;;5072387;28;20468;-82
2021/01/25 01:43:32;;;;;;;15.20;8.57;;;;;;;;;;5065814;28;20468;-82
2021/01/25 01:45:59;;;;;;;15.73;9.40;;;;;;;;;;5069958;28;20497;-82
2021/01/25 01:48:26;;;;;;;15.80;10.38;;;;;;;;;;5071460;28;20470;-82
2021/01/25 01:50:53;;;;;;;12.30;9.05;;;;;;;;;;5067284;28;20649;-82
2021/01/25 01:53:20;;;;;;;11.10;8.05;;;;;;;;;;5067232;28;20195;-82
2021/01/25 01:55:47;;;;;;;16.73;8.07;;;;;;;;;;5070097;28;20195;-83
2021/01/25 01:58:15;;;;;;;12.30;8.17;;;;;;;;;;5072941;28;20457;-81
2021/01/25 02:00:41;;;;;;;15.10;7.50;;;;;;;;;;5070931;28;20464;-82
2021/01/25 02:03:08;;;;;;;12.23;7.60;;;;;;;;;;5064387;28;20449;-82
2021/01/25 02:05:36;;;;;;;11.80;7.90;;;;;;;;;;5069872;28;20445;-82
2021/01/25 02:08:02;;;;;;;11.10;8.23;;;;;;;;;;5076435;28;20449;-82
2021/01/25 02:10:30;;;;;;;12.43;8.87;;;;;;;;;;5072714;28;20485;-81
2021/01/25 02:12:57;;;;;;;14.50;8.67;;;;;;;;;;5072631;28;20445;-82
2021/01/25 02:15:24;;;;;;;12.10;8.80;;;;;;;;;;5069702;28;20503;-81
2021/01/25 02:17:51;;;;;;;11.38;8.82;;;;;;;;;;5074161;28;20460;-82
2021/01/25 02:20:23;;;;;;;10.80;8.07;;;;;;;;;;5068541;28;20286;-82
2021/01/25 02:23:02;;;;;;;13.23;8.57;;;;;;;;;;5072547;28;20810;-82
2021/01/25 02:25:35;;;;;;;9.07;7.00;;;;;;;;;;5070830;28;20470;-82
2021/01/25 02:28:03;;;;;;;10.57;8.07;;;;;;;;;;5075214;28;20456;-82
2021/01/25 02:30:29;;;;;;;18.43;8.97;;;;;;;;;;5076426;28;21001;-82
2021/01/25 02:32:56;;;;;;;12.13;8.10;;;;;;;;;;5074082;28;20463;-82
2021/01/25 02:35:23;;;;;;;9.35;7.90;;;;;;;;;;5070880;28;20520;-82
2021/01/25 02:37:53;;;;;;;10.43;8.00;;;;;;;;;;5066705;28;20202;-82
2021/01/25 02:40:21;;;;;;;12.90;7.37;;;;;;;;;;5070418;28;20708;-82
2021/01/25 02:42:48;;;;;;;11.13;7.20;;;;;;;;;;5065584;28;20467;-82
2021/01/25 02:45:15;;;;;;;10.53;8.00;;;;;;;;;;5070683;28;20458;-81
2021/01/25 02:47:43;;;;;;;13.37;7.10;;;;;;;;;;5074052;28;20480;-82
2021/01/25 02:50:09;;;;;;;10.70;7.10;;;;;;;;;;5063130;28;20585;-83
2021/01/25 02:52:36;;;;;;;12.73;7.27;;;;;;;;;;5070287;28;20460;-82
2021/01/25 02:55:03;;;;;;;11.53;7.00;;;;;;;;;;5075844;28;20511;-82
2021/01/25 02:57:30;;;;;;;14.00;7.37;;;;;;;;;;5075081;28;20457;-82
2021/01/25 02:59:57;;;;;;;10.03;7.13;;;;;;;;;;5076618;28;20480;-81
2021/01/25 03:02:25;;;;;;;11.40;7.63;;;;;;;;;;5070076;28;20450;-82
2021/01/25 03:04:52;;;;;;;9.47;7.10;;;;;;;;;;5072550;28;20472;-81
2021/01/25 03:07:18;;;;;;;10.68;6.88;;;;;;;;;;5066726;28;20483;-82
2021/01/25 03:09:45;;;;;;;12.50;7.73;;;;;;;;;;5075027;28;20227;-82
2021/01/25 03:12:12;;;;;;;11.93;7.40;;;;;;;;;;5072561;28;20449;-82
2021/01/25 03:14:43;;;;;;;7.50;6.60;;;;;;;;;;5066656;28;20515;-82
2021/01/25 03:17:09;;;;;;;9.07;6.30;;;;;;;;;;5075201;28;20442;-82
2021/01/25 03:19:37;;;;;;;12.27;6.80;;;;;;;;;;5074753;28;20602;-82
2021/01/25 03:22:03;;;;;;;12.03;6.17;;;;;;;;;;5076093;28;20451;-82
2021/01/25 03:24:30;;;;;;;9.40;6.70;;;;;;;;;;5075578;28;20453;-82
2021/01/25 03:26:57;;;;;;;8.40;6.45;;;;;;;;;;5064880;28;20506;-82
2021/01/25 03:29:23;;;;;;;10.40;7.73;;;;;;;;;;5074616;28;20195;-83
2021/01/25 03:31:50;;;;;;;9.70;7.27;;;;;;;;;;5068559;28;20460;-82
2021/01/25 03:34:16;;;;;;;9.55;6.63;;;;;;;;;;5064852;28;20947;-82
2021/01/25 03:36:44;;;;;;;9.75;7.50;;;;;;;;;;5070661;28;20195;-82
2021/01/25 03:39:11;;;;;;;9.97;7.33;;;;;;;;;;5074820;28;20199;-82
2021/01/25 03:41:37;;;;;;;11.43;7.90;;;;;;;;;;5072890;28;20457;-82
2021/01/25 03:44:04;;;;;;;10.23;7.20;;;;;;;;;;5068475;28;20460;-82
2021/01/25 03:46:30;;;;;;;13.32;7.70;;;;;;;;;;5069282;28;20481;-82
2021/01/25 03:48:57;;;;;;;9.43;7.03;;;;;;;;;;5064045;28;20924;-82
2021/01/25 03:51:23;;;;;;;11.17;8.47;;;;;;;;;;5064354;28;20466;-82
2021/01/25 03:53:51;;;;;;;11.47;7.90;;;;;;;;;;5073282;28;20460;-82
2021/01/25 03:56:17;;;;;;;10.17;6.83;;;;;;;;;;5074761;28;20455;-81
2021/01/25 03:58:44;;;;;;;9.80;6.53;;;;;;;;;;5074346;28;20551;-81
2021/01/25 04:01:11;;;;;;;10.57;7.43;;;;;;;;;;5068786;28;20226;-82
2021/01/25 04:03:37;;;;;;;9.10;7.00;;;;;;;;;;5066800;28;20462;-81
2021/01/25 04:06:04;;;;;;;10.90;7.47;;;;;;;;;;5068721;28;20480;-82
2021/01/25 04:08:31;;;;;;;10.40;7.37;;;;;;;;;;5072891;28;20453;-81
2021/01/25 04:10:58;;;;;;;11.57;7.50;;;;;;;;;;5073983;28;20473;-82
2021/01/25 04:13:25;;;;;;;14.20;8.93;;;;;;;;;;5069454;28;20489;-82
2021/01/25 04:15:51;;;;;;;10.93;7.50;;;;;;;;;;5072123;28;20506;-82
2021/01/25 04:18:18;;;;;;;9.80;7.53;;;;;;;;;;5069082;28;20453;-82
2021/01/25 04:20:44;;;;;;;11.13;7.90;;;;;;;;;;5071727;28;20481;-81
2021/01/25 04:23:11;;;;;;;14.53;8.13;;;;;;;;;;5070692;28;20449;-82
2021/01/25 04:25:38;;;;;;;11.20;7.40;;;;;;;;;;5065314;28;20453;-82
2021/01/25 04:28:05;;;;;;;10.30;7.33;;;;;;;;;;5070156;28;20487;-81
2021/01/25 04:30:32;;;;;;;8.73;6.38;;;;;;;;;;5069499;28;20834;-81
2021/01/25 04:32:58;;;;;;;8.83;7.40;;;;;;;;;;5067524;28;20253;-81
2021/01/25 04:35:25;;;;;;;9.25;6.30;;;;;;;;;;5062370;28;20442;-81
2021/01/25 04:37:51;;;;;;;9.53;7.20;;;;;;;;;;5069585;28;20194;-81
2021/01/25 04:40:18;;;;;;;15.10;8.00;;;;;;;;;;5074558;28;20480;-82
2021/01/25 04:42:45;;;;;;;11.20;7.80;;;;;;;;;;5069247;28;20450;-81
2021/01/25 04:45:13;;;;;;;18.17;8.50;;;;;;;;;;5070525;28;20464;-81
2021/01/25 04:47:42;;;;;;;12.17;8.50;;;;;;;;;;5068860;28;20484;-81
2021/01/25 04:50:09;;;;;;;14.00;7.97;;;;;;;;;;5068183;28;20534;-81
2021/01/25 04:52:35;;;;;;;9.33;7.30;;;;;;;;;;5073713;28;21002;-81
2021/01/25 04:55:03;;;;;;;11.97;7.90;;;;;;;;;;5074428;28;20978;-81
2021/01/25 04:57:31;;;;;;;10.23;7.30;;;;;;;;;;5065193;28;20480;-81
2021/01/25 05:00:01;;;;;;;10.00;7.40;;;;;;;;;;5064083;28;20470;-81
2021/01/25 05:02:28;;;;;;;9.17;7.13;;;;;;;;;;5070109;28;20461;-81
2021/01/25 05:04:55;;;;;;;8.35;6.63;;;;;;;;;;5064766;28;20468;-81
2021/01/25 05:07:22;;;;;;;8.90;7.07;;;;;;;;;;5069514;28;20759;-81
2021/01/25 05:09:49;;;;;;;9.70;6.80;;;;;;;;;;5070961;28;20468;-81
2021/01/25 05:12:15;;;;;;;9.43;6.53;;;;;;;;;;5068892;28;20461;-81
2021/01/25 05:14:43;;;;;;;11.07;6.80;;;;;;;;;;5066368;28;20448;-81
2021/01/25 05:17:10;;;;;;;9.27;6.38;;;;;;;;;;5071361;28;20208;-81
2021/01/25 05:19:39;;;;;;;11.07;6.33;;;;;;;;;;5067561;28;20225;-81
2021/01/25 05:22:09;;;;;;;10.10;6.50;;;;;;;;;;5063267;28;20449;-81
2021/01/25 05:24:44;;;;;;;15.13;7.40;;;;;;;;;;5072480;28;20441;-81
2021/01/25 05:27:11;;;;;;;8.13;6.60;;;;;;;;;;5067381;28;21017;-82
2021/01/25 05:29:37;;;;;;;8.63;7.10;;;;;;;;;;5071293;28;20481;-81
2021/01/25 05:32:09;;;;;;;11.07;8.43;;;;;;;;;;5069493;28;20979;-81
2021/01/25 05:34:35;;;;;;;10.50;6.80;;;;;;;;;;5071227;28;20464;-81
2021/01/25 05:37:03;;;;;;;9.47;8.47;;;;;;;;;;5068750;28;20525;-81
2021/01/25 05:39:31;;;;;;;9.43;7.20;;;;;;;;;;5074466;28;20461;-81
2021/01/25 05:41:59;;;;;;;13.85;8.93;;;;;;;;;;5074670;28;20453;-82
2021/01/25 05:44:26;;;;;;;11.37;7.40;;;;;;;;;;5070056;28;20220;-81
2021/01/25 05:47:02;;;;;;;9.90;7.28;;;;;;;;;;5073543;28;20480;-81
2021/01/25 05:49:29;;;;;;;14.70;8.20;;;;;;;;;;5068725;28;20225;-82
2021/01/25 05:51:56;;;;;;;14.17;7.50;;;;;;;;;;5071992;28;20453;-81
2021/01/25 05:54:24;;;;;;;9.35;6.53;;;;;;;;;;5069653;28;20817;-82
2021/01/25 05:56:50;;;;;;;13.23;7.57;;;;;;;;;;5068121;28;20229;-81
2021/01/25 05:59:17;;;;;;;9.53;7.97;;;;;;;;;;5060979;28;20461;-82
2021/01/25 06:01:43;;;;;;;11.67;7.63;;;;;;;;;;5068408;28;20445;-82
2021/01/25 06:04:12;;;;;;;10.13;7.23;;;;;;;;;;5061135;28;20460;-82
2021/01/25 06:06:38;;;;;;;8.50;6.80;;;;;;;;;;5068050;28;20489;-82
2021/01/25 06:09:13;;;;;;;7.97;6.63;;;;;;;;;;5060521;28;20476;-82
2021/01/25 06:11:45;;;;;;;9.47;7.27;;;;;;;;;;5066264;28;20700;-82
2021/01/25 06:14:16;;;;;;;9.50;7.10;;;;;;;;;;5066420;28;20461;-81
2021/01/25 06:16:44;;;;;;;9.30;6.77;;;;;;;;;;5076012;28;20517;-82
2021/01/25 06:19:10;;;;;;;11.90;7.80;;;;;;;;;;5068777;28;20526;-81
2021/01/25 06:21:40;;;;;;;12.40;7.23;;;;;;;;;;5069787;28;20437;-81
2021/01/25 06:24:08;;;;;;;11.37;8.20;;;;;;;;;;5068049;28;20485;-81
2021/01/25 06:26:35;;;;;;;10.75;7.43;;;;;;;;;;5066413;28;20875;-83
2021/01/25 06:29:03;;;;;;;10.48;7.95;;;;;;;;;;5063277;28;20203;-79
2021/01/25 06:31:34;;;;;;;9.30;6.57;;;;;;;;;;5062830;28;20219;-82
2021/01/25 06:34:03;;;;;;;10.77;8.03;;;;;;;;;;5064361;28;20457;-80
2021/01/25 06:36:29;;;;;;;10.10;7.80;;;;;;;;;;5069762;28;20543;-81
2021/01/25 06:38:56;;;;;;;12.55;7.22;;;;;;;;;;5069983;28;20210;-81
2021/01/25 06:41:22;;;;;;;14.07;8.13;;;;;;;;;;5065855;28;20672;-84
2021/01/25 06:43:55;;;;;;;10.30;7.80;;;;;;;;;;5063092;28;20518;-86
2021/01/25 06:46:26;;;;;;;7.43;6.50;;;;;;;;;;5064997;28;20844;-85
2021/01/25 06:48:57;;;;;;;10.33;7.20;;;;;;;;;;5063809;28;20468;-86
2021/01/25 06:54:29;;;;;;;10.17;7.63;;;;;;;;;;5071195;28;20445;-84
2021/01/25 06:56:59;;;;;;;11.07;8.50;;;;;;;;;;5067359;28;20452;-86
2021/01/25 06:59:26;;;;;;;10.70;7.87;;;;;;;;;;5061847;28;20449;-83
2021/01/25 07:01:54;;;;;;;8.77;7.87;;;;;;;;;;5072416;28;20457;-86
2021/01/25 07:04:22;;;;;;;10.82;7.95;;;;;;;;;;5068413;28;20453;-80
2021/01/25 07:06:50;;;;;;;11.97;8.10;;;;;;;;;;5069019;28;20211;-86
2021/01/25 07:09:24;;;;;;;14.07;9.13;;;;;;;;;;5070194;28;20452;-84
2021/01/25 07:11:51;;;;;;;17.70;9.00;;;;;;;;;;5062003;28;20519;-83
2021/01/25 07:14:18;;;;;;;12.20;8.47;;;;;;;;;;5065385;28;20457;-85
2021/01/25 07:16:46;;;;;;;13.37;8.73;;;;;;;;;;5067681;28;20490;-83
2021/01/25 07:19:13;;;;;;;11.50;7.67;;;;;;;;;;5071622;28;20457;-84
2021/01/25 07:21:40;;;;;;;9.53;8.40;;;;;;;;;;5063874;28;20457;-83
2021/01/25 07:24:07;;;;;;;9.87;7.90;;;;;;;;;;5069349;28;20461;-83
2021/01/25 07:26:36;;;;;;;18.33;8.73;;;;;;;;;;5070324;28;20472;-87
2021/01/25 07:29:09;;;;;;;16.40;9.47;;;;;;;;;;5071770;28;20536;-86
2021/01/25 07:31:35;;;;;;;18.10;10.70;;;;;;;;;;5065742;28;20833;-86
2021/01/25 07:34:02;;;;;;;18.83;9.30;;;;;;;;;;5067815;28;20866;-87
2021/01/25 07:36:31;;;;;;;10.43;8.20;;;;;;;;;;5059707;28;20943;-87
2021/01/25 07:39:03;;;;;;;14.30;8.48;;;;;;;;;;5068516;28;21046;-84
2021/01/25 07:41:30;;;;;;;10.00;8.95;;;;;;;;;;5067355;28;20735;-84
2021/01/25 07:43:58;;;;;;;12.00;8.87;;;;;;;;;;5067673;28;20210;-86
2021/01/25 07:46:24;;;;;;;14.70;9.30;;;;;;;;;;5064359;28;20481;-88
2021/01/25 07:48:52;;;;;;;14.23;8.77;;;;;;;;;;5070773;28;20472;-85
2021/01/25 07:51:19;;;;;;;11.57;8.73;;;;;;;;;;5068566;28;20468;-85
2021/01/25 07:53:47;;;;;;;10.17;8.47;;;;;;;;;;5064366;28;20449;-85
2021/01/25 07:59:05;;;;;;;9.83;8.30;;;;;;;;;;5056537;28;20462;-85
2021/01/25 08:01:34;;;;;;;17.13;8.60;;;;;;;;;;5065247;28;20454;-85
2021/01/25 08:04:05;;;;;;;11.45;9.70;;;;;;;;;;5061061;28;20491;-86
2021/01/25 08:06:32;;;;;;;10.15;8.75;;;;;;;;;;5060265;28;20276;-83
2021/01/25 08:09:01;;;;;;;10.57;8.65;;;;;;;;;;5065321;28;20199;-83
2021/01/25 08:11:27;;;;;;;11.47;9.47;;;;;;;;;;5066804;28;20218;-80
2021/01/25 08:13:58;;;;;;;11.43;9.20;;;;;;;;;;5064790;28;20460;-80
2021/01/25 08:16:28;;;;;;;11.83;9.63;;;;;;;;;;5070334;28;20495;-80
2021/01/25 08:18:57;;;;;;;14.63;8.90;;;;;;;;;;5061537;28;20448;-80
2021/01/25 08:21:25;;;;;;;12.50;10.40;;;;;;;;;;5069908;28;20830;-80
2021/01/25 08:23:53;;;;;;;12.00;9.80;;;;;;;;;;5063501;28;20531;-85
2021/01/25 08:26:23;;;;;;;12.80;9.40;;;;;;;;;;5064937;28;20502;-84
2021/01/25 08:28:54;;;;;;;13.40;9.40;;;;;;;;;;5054139;28;20445;-81
2021/01/25 08:31:31;;;;;;;11.40;9.03;;;;;;;;;;5068207;28;20479;-82
2021/01/25 08:33:58;;;;;;;10.90;9.27;;;;;;;;;;5063978;28;20461;-82
2021/01/25 08:36:26;;;;;;;12.20;9.17;;;;;;;;;;5067226;28;20441;-86
2021/01/25 08:38:52;;;;;;;13.97;10.60;;;;;;;;;;5059331;28;20513;-85
2021/01/25 08:41:22;;;;;;;17.10;11.87;;;;;;;;;;5066799;28;20480;-85
2021/01/25 08:43:53;;;;;;;12.80;9.50;;;;;;;;;;5059174;28;20449;-79
2021/01/25 08:46:25;;;;;;;12.73;10.47;;;;;;;;;;5064772;28;20477;-82
2021/01/25 08:48:55;;;;;;;12.97;9.80;;;;;;;;;;5065194;28;20503;-82
2021/01/25 08:51:30;;;;;;;10.80;9.10;;;;;;;;;;5063446;28;20469;-81
2021/01/25 08:54:04;;;;;;;11.50;9.70;;;;;;;;;;5065001;28;20531;-83
2021/01/25 08:56:37;;;;;;;12.80;10.33;;;;;;;;;;5060560;28;20248;-86
2021/01/25 08:59:11;;;;;;;11.93;9.20;;;;;;;;;;5063763;28;20455;-80
2021/01/25 09:01:38;;;;;;;10.57;9.40;;;;;;;;;;5059690;28;20572;-80
2021/01/25 09:04:06;;;;;;;11.27;9.70;;;;;;;;;;5067426;28;20500;-80
2021/01/25 09:06:33;;;;;;;11.70;10.00;;;;;;;;;;5059240;28;20476;-80
2021/01/25 09:09:02;;;;;;;10.33;9.27;;;;;;;;;;5059547;28;20483;-78
2021/01/25 09:11:29;;;;;;;9.03;8.03;;;;;;;;;;5055875;28;20567;-81
2021/01/25 09:13:56;;;;;;;9.60;8.60;;;;;;;;;;5063215;28;20503;-80
2021/01/25 09:16:22;;;;;;;10.23;8.53;;;;;;;;;;5057823;28;20485;-79
2021/01/25 09:18:49;;;;;;;13.73;9.97;;;;;;;;;;5061948;28;20461;-78
2021/01/25 09:21:16;;;;;;;14.13;10.03;;;;;;;;;;5060842;28;20493;-78
2021/01/25 09:23:43;;;;;;;12.00;9.77;;;;;;;;;;5057778;28;21111;-80
2021/01/25 09:26:09;;;;;;;13.37;9.57;;;;;;;;;;5062000;28;20528;-81
2021/01/25 09:28:36;;;;;;;11.83;9.47;;;;;;;;;;5057397;28;20463;-81
2021/01/25 09:31:03;;;;;;;13.73;10.50;;;;;;;;;;5064707;28;20473;-81
2021/01/25 09:33:29;;;;;;;13.67;10.20;;;;;;;;;;5055075;28;20500;-77
2021/01/25 09:35:56;;;;;;;15.43;10.77;;;;;;;;;;5062796;28;20583;-78
2021/01/25 09:38:23;;;;;;;19.20;12.90;;;;;;;;;;5063984;28;20462;-80
2021/01/25 09:40:50;;;;;;;18.80;12.10;;;;;;;;;;5065663;28;20559;-82
2021/01/25 09:43:17;;;;;;;17.90;12.00;;;;;;;;;;5056260;28;20477;-80
2021/01/25 09:45:43;;;;;;;12.13;10.40;;;;;;;;;;5062547;28;20454;-80
2021/01/25 09:48:11;;;;;;;13.37;11.10;;;;;;;;;;5065101;28;20550;-83
2021/01/25 09:50:38;;;;;;;17.48;12.27;;;;;;;;;;5063102;28;20481;-83
2021/01/25 09:53:04;;;;;;;17.03;11.63;;;;;;;;;;5069061;28;20221;-79
2021/01/25 09:55:32;;;;;;;14.80;10.07;;;;;;;;;;5067687;28;20467;-79
2021/01/25 09:57:58;;;;;;;14.20;10.67;;;;;;;;;;5067896;28;20468;-81
2021/01/25 10:00:25;;;;;;;19.20;11.45;;;;;;;;;;5065556;28;20461;-79
2021/01/25 10:02:52;;;;;;;14.20;10.70;;;;;;;;;;5065298;28;20625;-81
2021/01/25 10:05:18;;;;;;;15.40;11.50;;;;;;;;;;5057299;28;20606;-82
2021/01/25 10:07:45;;;;;;;16.40;10.90;;;;;;;;;;5067500;28;20547;-84
2021/01/25 10:10:13;;;;;;;11.53;10.33;;;;;;;;;;5065276;28;20477;-82
2021/01/25 10:12:41;;;;;;;13.48;11.10;;;;;;;;;;5060215;28;20519;-85
2021/01/25 10:15:08;;;;;;;14.80;10.77;;;;;;;;;;5070431;28;20213;-80
2021/01/25 10:17:34;;;;;;;11.90;10.10;;;;;;;;;;5066360;28;20460;-81
2021/01/25 10:20:01;;;;;;;14.50;10.87;;;;;;;;;;5071909;28;20535;-78
2021/01/25 10:22:28;;;;;;;14.60;12.10;;;;;;;;;;5064511;28;20468;-80
2021/01/25 10:24:54;;;;;;;15.05;10.10;;;;;;;;;;5075272;28;20452;-80
2021/01/25 10:27:21;;;;;;;11.10;9.50;;;;;;;;;;5068845;28;20214;-80
2021/01/25 10:29:48;;;;;;;13.63;10.27;;;;;;;;;;5072856;28;20464;-82
2021/01/25 10:32:15;;;;;;;14.20;11.47;;;;;;;;;;5068604;28;20967;-82
2021/01/25 10:34:42;;;;;;;10.90;9.67;;;;;;;;;;5064729;28;20468;-82
2021/01/25 10:37:08;;;;;;;11.40;8.90;;;;;;;;;;5064389;28;20464;-81
2021/01/25 10:39:35;;;;;;;10.63;8.70;;;;;;;;;;5066343;28;20883;-81
2021/01/25 10:42:02;;;;;;;11.97;9.90;;;;;;;;;;5067471;28;20222;-81
2021/01/25 10:44:28;;;;;;;12.10;9.60;;;;;;;;;;5071245;28;20456;-81
2021/01/25 10:46:56;;;;;;;12.60;9.77;;;;;;;;;;5071645;28;20528;-80
2021/01/25 10:49:22;;;;;;;12.05;9.75;;;;;;;;;;5069834;28;20457;-81
2021/01/25 10:51:49;;;;;;;12.43;8.90;;;;;;;;;;5065301;28;20207;-81
2021/01/25 10:54:22;;;;;;;17.20;10.67;;;;;;;;;;5065069;28;20982;-81
2021/01/25 10:56:48;;;;;;;12.00;8.07;;;;;;;;;;5069087;28;20445;-82
2021/01/25 10:59:15;;;;;;;14.03;9.37;;;;;;;;;;5064992;28;20824;-84
2021/01/25 11:01:41;;;;;;;10.57;9.33;;;;;;;;;;5072122;28;20441;-83
2021/01/25 11:04:09;;;;;;;11.53;9.40;;;;;;;;;;5066295;28;20471;-83
2021/01/25 11:06:35;;;;;;;10.83;9.10;;;;;;;;;;5069643;28;20950;-84
2021/01/25 11:09:02;;;;;;;13.40;10.57;;;;;;;;;;5063103;28;20506;-83
2021/01/25 11:11:32;;;;;;;11.53;9.37;;;;;;;;;;5072669;28;20476;-83
2021/01/25 11:13:58;;;;;;;11.40;9.17;;;;;;;;;;5070150;28;20486;-82
2021/01/25 11:16:25;;;;;;;9.83;8.77;;;;;;;;;;5073164;28;20657;-82
2021/01/25 11:18:56;;;;;;;11.50;9.60;;;;;;;;;;5069686;28;20453;-84
2021/01/25 11:21:23;;;;;;;12.57;9.00;;;;;;;;;;5071662;28;20472;-81
2021/01/25 11:23:50;;;;;;;13.37;9.77;;;;;;;;;;5073474;28;20460;-82
2021/01/25 11:26:17;;;;;;;17.53;9.70;;;;;;;;;;5067028;28;20453;-82
2021/01/25 11:28:44;;;;;;;13.13;9.48;;;;;;;;;;5070193;28;20489;-82
2021/01/25 11:31:11;;;;;;;14.30;10.43;;;;;;;;;;5069998;28;20222;-82
2021/01/25 11:33:37;;;;;;;12.53;9.47;;;;;;;;;;5070670;28;20460;-82
2021/01/25 11:36:04;;;;;;;14.43;11.03;;;;;;;;;;5060862;28;20505;-80
2021/01/25 11:38:31;;;;;;;13.80;10.17;;;;;;;;;;5074551;28;20495;-82
2021/01/25 11:40:58;;;;;;;15.30;9.87;;;;;;;;;;5064199;28;20567;-82
2021/01/25 11:43:25;;;;;;;11.47;9.80;;;;;;;;;;5076955;28;20449;-81
2021/01/25 11:45:51;;;;;;;12.20;9.17;;;;;;;;;;5074107;28;20457;-81
2021/01/25 11:48:18;;;;;;;12.80;9.33;;;;;;;;;;5079003;28;20477;-79
2021/01/25 11:50:45;;;;;;;13.25;10.23;;;;;;;;;;5070801;28;20485;-82
2021/01/25 11:53:11;;;;;;;11.50;9.60;;;;;;;;;;5069122;28;20296;-80
2021/01/25 11:55:40;;;;;;;9.10;7.47;;;;;;;;;;5073095;28;20453;-79
2021/01/25 11:58:07;;;;;;;10.17;8.27;;;;;;;;;;5071549;28;20457;-79
2021/01/25 12:00:34;;;;;;;15.30;8.63;;;;;;;;;;5070455;28;20473;-82
2021/01/25 12:03:00;;;;;;;12.80;8.10;;;;;;;;;;5065168;28;20479;-80
2021/01/25 12:05:27;;;;;;;9.80;7.27;;;;;;;;;;5063007;28;20466;-81
2021/01/25 12:07:55;;;;;;;10.00;6.77;;;;;;;;;;5072346;28;20544;-81
2021/01/25 12:10:22;;;;;;;9.13;5.95;;;;;;;;;;5066266;28;20490;-82
2021/01/25 12:12:49;;;;;;;8.83;6.10;;;;;;;;;;5068982;28;20198;-80
2021/01/25 12:17:56;;;;;;;7.00;5.65;;;;;;;;;;5057829;28;20487;-71
2021/01/25 12:20:22;;;;;;;7.00;5.23;;;;;;;;;;5060998;28;20203;-70
2021/01/25 12:22:49;;;;;;;7.30;4.50;;;;;;;;;;5041156;28;20486;-72
2021/01/25 12:25:16;;;;;;;8.90;5.10;;;;;;;;;;5043155;28;20462;-70
2021/01/25 12:27:43;;;;;;;6.10;4.60;;;;;;;;;;5029942;28;21035;-71
2021/01/25 12:30:14;;;;;;;5.60;3.80;;;;;;;;;;5038459;28;21356;-71
2021/01/25 12:32:41;;;;;;;4.60;3.07;;;;;;;;;;5032074;28;20489;-71
2021/01/25 12:35:09;;;;;;;4.10;2.77;;;;;;;;;;5042965;28;20830;-71
2021/01/25 12:37:35;;;;;;;3.10;1.30;;;;;;;;;;5039460;28;20477;-70
2021/01/25 12:40:02;;;;;;;1.83;0.97;;;;;;;;;;5037089;28;20446;-70
2021/01/25 12:42:29;;;;;;;1.47;1.07;;;;;;;;;;5041045;28;20478;-70
2021/01/25 12:44:55;;;;;;;2.70;1.43;;;;;;;;;;5037632;28;20464;-71
2021/01/25 12:47:23;;;;;;;3.67;2.17;;;;;;;;;;5041529;28;20480;-71
2021/01/25 12:49:49;;;;;;;3.22;2.30;;;;;;;;;;5035555;28;20545;-71
2021/01/25 12:52:16;;;;;;;4.70;2.70;;;;;;;;;;5036651;28;20269;-70
2021/01/25 12:54:43;;;;;;;3.20;2.60;;;;;;;;;;5041809;28;20458;-71
2021/01/25 12:57:09;;;;;;;2.90;2.10;;;;;;;;;;5040165;28;20962;-71
2021/01/25 12:59:36;;;;;;;3.20;2.63;;;;;;;;;;5035930;28;20465;-71
2021/01/25 13:02:02;;;;;;;6.00;2.50;;;;;;;;;;5039434;28;20215;-72
2021/01/25 13:04:30;;;;;;;4.70;2.40;;;;;;;;;;5031641;28;20466;-72
2021/01/25 13:06:56;;;;;;;5.70;2.90;;;;;;;;;;5042533;28;20482;-72
2021/01/25 13:09:23;;;;;;;2.27;1.93;;;;;;;;;;5026593;28;21500;-71
2021/01/25 13:11:50;;;;;;;1.90;1.50;;;;;;;;;;5041116;28;20481;-72
2021/01/25 13:14:17;;;;;;;1.80;1.23;;;;;;;;;;5041107;28;20441;-71
2021/01/25 13:16:43;;;;;;;2.80;1.80;;;;;;;;;;5034961;28;20480;-71
2021/01/25 13:19:10;;;;;;;3.57;1.97;;;;;;;;;;5042563;28;20958;-71
2021/01/25 13:21:37;;;;;;;3.27;2.00;;;;;;;;;;5030263;28;20531;-70
2021/01/25 13:24:04;;;;;;;2.17;1.20;;;;;;;;;;5040713;28;21085;-72
2021/01/25 13:26:31;;;;;;;2.10;1.50;;;;;;;;;;5029446;28;20738;-71
2021/01/25 13:28:57;;;;;;;1.90;1.60;;;;;;;;;;5040019;28;20242;-71
2021/01/25 13:31:24;;;;;;;3.20;2.03;;;;;;;;;;5043118;28;20514;-72
2021/01/25 13:33:51;;;;;;;2.83;2.00;;;;;;;;;;5045461;28;20998;-72
2021/01/25 13:36:17;;;;;;;2.50;1.90;;;;;;;;;;5018182;28;20474;-70
2021/01/25 13:38:45;;;;;;;2.97;2.43;;;;;;;;;;5032235;28;20461;-74
2021/01/25 13:41:12;;;;;;;3.10;2.43;;;;;;;;;;5045476;28;20465;-68
2021/01/25 13:43:39;;;;;;;3.70;2.60;;;;;;;;;;5037393;28;20453;-71
2021/01/25 13:46:05;;;;;;;2.87;1.80;;;;;;;;;;5043851;28;20446;-71
2021/01/25 13:48:32;;;;;;;2.17;1.70;;;;;;;;;;5030181;28;20473;-71
2021/01/25 13:50:59;;;;;;;2.77;2.00;;;;;;;;;;5042456;28;20457;-71
2021/01/25 13:53:25;;;;;;;2.37;2.13;;;;;;;;;;5034191;28;20982;-71
2021/01/25 13:55:53;;;;;;;2.47;2.07;;;;;;;;;;5047543;28;20452;-71
2021/01/25 13:58:19;;;;;;;5.00;2.83;;;;;;;;;;5032797;28;20512;-71
2021/01/25 14:00:46;;;;;;;4.83;2.80;;;;;;;;;;5042216;28;20523;-71
2021/01/25 14:03:13;;;;;;;3.55;2.63;;;;;;;;;;5032080;28;20907;-71
2021/01/25 14:05:39;;;;;;;3.30;1.93;;;;;;;;;;5044070;28;20195;-71
2021/01/25 14:08:06;;;;;;;3.42;2.10;;;;;;;;;;5031479;28;20478;-70
2021/01/25 14:10:32;;;;;;;2.50;2.20;;;;;;;;;;5048172;28;20200;-70
2021/01/25 14:13:00;;;;;;;2.83;2.30;;;;;;;;;;5033501;28;20901;-70
2021/01/25 14:15:26;;;;;;;2.60;1.93;;;;;;;;;;5038007;28;20441;-69
2021/01/25 14:17:53;;;;;;;2.50;2.30;;;;;;;;;;5041317;28;20477;-70
2021/01/25 14:20:21;;;;;;;2.40;2.00;;;;;;;;;;5028987;28;20587;-69
2021/01/25 14:22:48;;;;;;;3.50;2.33;;;;;;;;;;5042214;28;20985;-69
2021/01/25 14:25:16;;;;;;;2.43;2.17;;;;;;;;;;5022540;28;20457;-70
2021/01/25 14:27:42;;;;;;;3.77;2.30;;;;;;;;;;5041821;28;20489;-70
2021/01/25 14:30:12;;;;;;;4.00;2.40;;;;;;;;;;5028773;28;20879;-70
2021/01/25 14:32:39;;;;;;;2.60;2.40;;;;;;;;;;5033266;28;20543;-69
2021/01/25 14:35:06;;;;;;;3.30;2.47;;;;;;;;;;5031989;28;20469;-70
2021/01/25 14:37:33;;;;;;;3.10;2.03;;;;;;;;;;5042541;28;20456;-70
2021/01/25 14:39:59;;;;;;;2.73;2.10;;;;;;;;;;5034705;28;20465;-70
2021/01/25 14:42:26;;;;;;;4.50;2.40;;;;;;;;;;5043627;28;20465;-70